Sunday, November 19, 2017, 10:39 AM GMT
Back to Local

CYQM, Moncton, N. B.

Location: , , Canada Lat: 46.117
Local Time: 10:39 AM GMT (10:39 GMT) Lon: -64.683
Time Zone: GMT Elev: 232 ft

Show me the last for .
Show Decoded

2017-11-19 10:00 METAR CYQM 191000Z 10008KT 15SM -RA OVC057 01/01 A2957 RMK SC8 SLP020 =
2017-11-19 09:00 METAR CYQM 190900Z 10007KT 15SM -RA OVC053 01/M00 A2961 RMK SC8 SLP032 =
2017-11-19 08:44 METAR CYQM 190844Z 07004KT 15SM -RA BKN053 OVC080 01/M01 A2961 RMK SC6AC2 SLP032
                 =
2017-11-19 08:00 METAR CYQM 190800Z 12007KT 15SM BKN076 OVC120 01/M01 A2965 RMK AC7AC1 SLP045 =
2017-11-19 07:00 METAR CYQM 190700Z 15008KT 15SM FEW012 OVC089 01/M02 A2968 RMK SC2AC6 SLP056 =
2017-11-19 06:00 METAR CYQM 190600Z 14005KT 15SM OVC100 M00/M03 A2971 RMK AC8 SLP064 =
2017-11-19 05:00 METAR CYQM 190500Z 16007KT 15SM OVC110 M00/M04 A2972 RMK AC8 SLP070 =
2017-11-19 04:00 METAR CYQM 190400Z 23003KT 15SM OVC120 M01/M03 A2974 RMK AC8 SLP076 =
2017-11-19 03:00 METAR CYQM 190300Z VRB02KT 15SM FEW058 OVC120 M01/M04 A2975 RMK SC1AC7 SLP079 =
2017-11-19 02:00 METAR CYQM 190200Z 17002KT 15SM OVC120 M01/M04 A2976 RMK AC8 SLP084 =
2017-11-19 01:00 METAR CYQM 190100Z 14003KT 140V240 15SM OVC120 M01/M04 A2976 RMK AC8 SLP081 =
2017-11-19 00:00 METAR CYQM 190000Z 20003KT 15SM OVC150 M01/M04 A2977 RMK AC8 SLP086 =
2017-11-18 23:00 METAR CYQM 182300Z 23004KT 15SM FEW032 BKN180 OVC220 M01/M04 A2977 RMK SC1AC6CI1
                 SLP088 =
2017-11-18 22:00 METAR CYQM 182200Z 23006KT 15SM FEW032 SCT150 BKN240 M01/M04 A2978 RMK SC1AC2CI3
                 SLP091 =
2017-11-18 21:00 METAR CYQM 182100Z 22004KT 15SM FEW032 SCT130 BKN260 00/M04 A2976 RMK SC1AC3CI2
                 SLP083 =
2017-11-18 20:00 METAR CYQM 182000Z 25009KT 15SM FEW028 FEW260 01/M04 A2976 RMK SC2CI1 CI TR
                 SLP081 =
2017-11-18 19:00 METAR CYQM 181900Z 27008KT 15SM FEW028 FEW260 02/M04 A2973 RMK SC1CI1 SC TR CI
                 TR SLP072 =
2017-11-18 18:00 METAR CYQM 181800Z 25009KT 240V300 15SM SCT027 02/M04 A2973 RMK SC3 SLP074 =
2017-11-18 17:00 METAR CYQM 181700Z 25012KT 15SM BKN025 01/M05 A2975 RMK SC6 SLP078 =
2017-11-18 16:00 METAR CYQM 181600Z 27010G15KT 15SM BKN025 00/M04 A2975 RMK SC5 SLP079 =
2017-11-18 15:00 METAR CYQM 181500Z 27014KT 15SM BKN024 M01/M05 A2976 RMK SC6 SLP083 =
2017-11-18 14:00 METAR CYQM 181400Z 28015KT 15SM FEW015 BKN029 M02/M05 A2976 RMK SC1SC4 SLP084 =
2017-11-18 13:00 METAR CYQM 181300Z 27012G19KT 15SM SCT016 SCT260 M03/M06 A2975 RMK SC4CI1 CI TR
                 PRESRR SLP079 =
2017-11-18 12:00 METAR CYQM 181200Z 26015G20KT 15SM SCT017 SCT260 M04/M06 A2971 RMK SC3CI1 CI TR
                 SLP067 =
2017-11-18 11:00 METAR CYQM 181100Z 27013G18KT 15SM BKN018 M03/M06 A2968 RMK SC6 SLP057 =

Support USWX by starting your Amazon purchase here.